createdAt,value
2022-09-23T18:09:12.734Z,101180.59
2022-09-23T18:12:16.955Z,101186.34
2022-09-23T18:15:21.039Z,101181.19
2022-09-23T18:18:24.605Z,101176.25
2022-09-23T18:21:30.868Z,101181.09
2022-09-23T18:24:39.737Z,101187.84
2022-09-23T18:27:43.274Z,101184.06
2022-09-23T18:30:53.821Z,101191.69
2022-09-23T18:33:58.165Z,101183.53
2022-09-23T18:37:01.730Z,101182.53
2022-09-23T18:40:11.340Z,101184.59
2022-09-23T18:43:19.896Z,101183.06
2022-09-23T18:46:25.573Z,101184.75
2022-09-23T18:49:46.802Z,101188.16
2022-09-23T18:52:50.377Z,101190.75
2022-09-23T18:55:55.345Z,101184.75
2022-09-23T18:58:59.128Z,101188.59
2022-09-23T19:02:02.920Z,101187.50
2022-09-23T19:05:07.506Z,101188.78
2022-09-23T19:08:11.074Z,101197.22
2022-09-23T19:11:15.974Z,101189.25
2022-09-23T19:14:19.534Z,101193.25
2022-09-23T19:17:23.093Z,101194.78
2022-09-23T19:20:26.682Z,101197.69
2022-09-23T19:23:32.095Z,101186.63
2022-09-23T19:26:39.266Z,101188.78
2022-09-23T19:29:42.878Z,101187.94
2022-09-23T19:32:46.854Z,101188.66
2022-09-23T19:35:53.117Z,101189.25
2022-09-23T19:38:58.369Z,101188.25
2022-09-23T19:42:03.758Z,101187.41
2022-09-23T19:45:08.074Z,101173.31
2022-09-23T19:48:11.949Z,101170.72
2022-09-23T19:51:16.543Z,101173.66
2022-09-23T19:54:20.677Z,101182.59
2022-09-23T19:57:29.717Z,101175.03
2022-09-23T20:00:34.376Z,101175.63
2022-09-23T20:03:38.825Z,101171.31
2022-09-23T20:06:42.504Z,101170.56
2022-09-23T20:09:46.198Z,101171.50
2022-09-23T20:12:51.166Z,101157.81
2022-09-23T20:15:54.742Z,101153.97
2022-09-23T20:18:59.749Z,101155.28
2022-09-23T20:22:20.923Z,101147.56
2022-09-23T20:25:24.494Z,101147.56
2022-09-23T20:28:28.443Z,101143.25
2022-09-23T20:31:32.226Z,101142.59
2022-09-23T20:34:35.871Z,101137.91
2022-09-23T20:37:39.413Z,101142.03
2022-09-23T20:40:42.990Z,101127.22
2022-09-23T20:43:48.247Z,101131.13
2022-09-23T20:46:51.879Z,101128.28
2022-09-23T20:49:55.502Z,101124.53
2022-09-23T20:52:59.059Z,101121.94
2022-09-23T20:56:05.915Z,101110.78
2022-09-23T20:59:14.924Z,101122.69
2022-09-23T21:02:19.055Z,101124.22
2022-09-23T21:05:23.273Z,101113.41
2022-09-23T21:08:26.898Z,101115.78
2022-09-23T21:11:32.019Z,101110.41
2022-09-23T21:14:36.922Z,101117.13
2022-09-23T21:17:40.545Z,101108.22
2022-09-23T21:20:44.089Z,101107.75
2022-09-23T21:23:48.615Z,101112.69
2022-09-23T21:26:52.221Z,101106.31
2022-09-23T21:29:57.386Z,101106.31
2022-09-23T21:33:02.051Z,101105.94
2022-09-23T21:36:07.885Z,101109.94
2022-09-23T21:39:13.449Z,101102.84
2022-09-23T21:42:17.019Z,101100.06
2022-09-23T21:45:21.938Z,101113.53
2022-09-23T21:48:25.706Z,101104.88
2022-09-23T21:51:30.899Z,101110.25
2022-09-23T21:54:34.496Z,101111.53
2022-09-23T21:57:38.365Z,101108.88
2022-09-23T22:00:44.020Z,101106.88
2022-09-23T22:03:52.329Z,101106.72
2022-09-23T22:06:55.898Z,101113.03
